Time;durP1;ratioP1;P1;durP2;ratioP2;P2;SDS_P1;SDS_P2;PMS_P1;PMS_P2;Temp;Humidity;BMP_temperature;BMP_pressure;BME280_temperature;BME280_humidity;BME280_pressure;Samples;Min_cycle;Max_cycle;Signal;HPM_P1;HPM_P2
2022/08/21 00:00:21;;;;;;;10.27;5.15;;;;;;;20.14;56.85;100453.38;5099941;28;20093;-70
2022/08/21 00:02:52;;;;;;;6.88;4.90;;;;;;;20.15;57.00;100447.84;5107544;28;20200;-70
2022/08/21 00:05:19;;;;;;;7.15;4.60;;;;;;;20.20;57.10;100451.00;5106828;28;20140;-71
2022/08/21 00:07:46;;;;;;;8.55;5.28;;;;;;;20.23;57.16;100448.03;5110071;28;20548;-71
2022/08/21 00:10:13;;;;;;;8.63;4.82;;;;;;;20.22;56.94;100448.16;5107884;28;20429;-71
2022/08/21 00:12:41;;;;;;;9.30;4.82;;;;;;;20.19;57.30;100448.44;5108640;28;20111;-70
2022/08/21 00:15:09;;;;;;;9.38;4.85;;;;;;;20.05;57.06;100417.34;5103653;28;20180;-71
2022/08/21 00:17:37;;;;;;;8.45;5.97;;;;;;;20.03;57.36;100424.69;5106233;27;20088;-69
2022/08/21 00:20:08;;;;;;;10.27;5.47;;;;;;;20.01;57.66;100426.66;5102249;27;20071;-72
2022/08/21 00:22:36;;;;;;;11.32;5.63;;;;;;;19.85;58.15;100405.63;5104209;28;20043;-71
2022/08/21 00:25:05;;;;;;;13.48;5.88;;;;;;;19.94;58.57;100423.66;5108354;27;20050;-70
2022/08/21 00:27:33;;;;;;;9.13;5.47;;;;;;;19.98;58.19;100426.94;5109052;27;20074;-71
2022/08/21 00:29:59;;;;;;;7.70;5.07;;;;;;;19.95;58.28;100420.00;5110406;28;20100;-70
2022/08/21 00:32:27;;;;;;;8.15;5.05;;;;;;;19.96;58.20;100423.53;5106703;28;20067;-69
2022/08/21 00:34:54;;;;;;;8.02;5.25;;;;;;;19.93;58.48;100426.47;5110331;28;20051;-69
2022/08/21 00:37:21;;;;;;;7.78;4.80;;;;;;;19.81;59.03;100416.78;5109451;28;20074;-68
2022/08/21 00:39:48;;;;;;;8.10;5.20;;;;;;;19.81;59.03;100424.84;5111326;27;20067;-70
2022/08/21 00:42:16;;;;;;;8.45;5.20;;;;;;;19.72;59.12;100431.84;5109847;27;20073;-70
2022/08/21 00:44:44;;;;;;;6.57;4.90;;;;;;;19.50;59.69;100405.94;5104722;27;20138;-68
2022/08/21 00:47:11;;;;;;;10.00;5.75;;;;;;;19.56;59.94;100426.03;5102334;28;20117;-69
2022/08/21 00:49:40;;;;;;;6.82;5.20;;;;;;;19.57;60.42;100428.59;5106223;27;20070;-69
2022/08/21 00:52:10;;;;;;;12.30;5.70;;;;;;;19.58;60.39;100432.16;5107907;28;20584;-71
2022/08/21 00:54:39;;;;;;;7.88;5.28;;;;;;;19.57;60.19;100427.75;5101690;28;20086;-73
2022/08/21 00:57:15;;;;;;;10.55;5.43;;;;;;;19.52;60.05;100429.97;5108261;28;20052;-71
2022/08/21 00:59:45;;;;;;;8.82;5.15;;;;;;;19.48;60.68;100425.81;5109356;27;20078;-72
2022/08/21 01:02:13;;;;;;;10.00;5.30;;;;;;;19.50;60.88;100429.25;5115025;27;20039;-72
2022/08/21 01:04:39;;;;;;;10.70;5.63;;;;;;;19.39;60.76;100411.31;5109461;28;20127;-72
2022/08/21 01:07:06;;;;;;;9.52;5.82;;;;;;;19.46;60.66;100411.66;5109961;28;20044;-71
2022/08/21 01:09:33;;;;;;;8.60;5.60;;;;;;;19.48;60.54;100407.88;5109728;28;20113;-74
2022/08/21 01:12:00;;;;;;;9.73;5.95;;;;;;;19.58;60.14;100429.47;5107968;27;20036;-73
2022/08/21 01:14:28;;;;;;;10.20;5.82;;;;;;;19.48;60.91;100423.97;5103864;28;20066;-73
2022/08/21 01:16:57;;;;;;;10.73;5.70;;;;;;;19.47;61.31;100421.44;5105306;27;20142;-70
2022/08/21 01:19:25;;;;;;;7.90;5.60;;;;;;;19.47;61.20;100421.44;5105646;28;20449;-73
2022/08/21 01:21:53;;;;;;;9.75;5.80;;;;;;;19.35;61.56;100406.34;5106276;28;20131;-70
2022/08/21 01:24:21;;;;;;;9.25;5.45;;;;;;;19.28;61.74;100395.25;5107814;28;20040;-71
2022/08/21 01:26:49;;;;;;;11.13;6.20;;;;;;;19.40;61.87;100428.28;5110008;27;20047;-72
2022/08/21 01:29:37;;;;;;;9.43;5.43;;;;;;;19.32;62.36;100428.91;5108646;28;20044;-70
2022/08/21 01:32:17;;;;;;;9.13;6.35;;;;;;;19.26;62.57;100432.09;5105746;27;20476;-71
2022/08/21 01:34:46;;;;;;;10.25;5.90;;;;;;;19.20;62.91;100427.25;5084813;28;20664;-67
2022/08/21 01:37:14;;;;;;;8.38;5.60;;;;;;;19.10;63.30;100413.72;5083338;28;20140;-70
2022/08/21 01:39:44;;;;;;;8.70;6.10;;;;;;;19.18;63.12;100435.44;5084809;28;20047;-69
2022/08/21 01:42:10;;;;;;;10.30;6.50;;;;;;;19.16;63.28;100437.38;5081140;28;20410;-71
2022/08/21 01:44:37;;;;;;;8.98;6.07;;;;;;;19.05;63.44;100415.91;5086654;28;20078;-70
2022/08/21 01:47:08;;;;;;;9.07;6.13;;;;;;;18.96;63.50;100407.78;5087966;28;20064;-70
2022/08/21 01:49:36;;;;;;;10.13;6.07;;;;;;;19.07;63.54;100423.84;5090657;28;20047;-68
2022/08/21 01:52:04;;;;;;;10.55;6.22;;;;;;;19.05;63.58;100428.47;5080489;28;20052;-68
2022/08/21 01:54:35;;;;;;;10.10;6.28;;;;;;;19.02;64.00;100429.63;5084422;28;20045;-68
2022/08/21 01:57:02;;;;;;;8.60;6.40;;;;;;;19.00;64.10;100419.97;5082726;28;20122;-69
2022/08/21 01:59:28;;;;;;;11.57;6.60;;;;;;;18.97;64.17;100421.06;5087882;28;20476;-69
2022/08/21 02:01:57;;;;;;;10.65;6.13;;;;;;;18.97;64.35;100421.06;5088419;28;20048;-67
2022/08/21 02:04:24;;;;;;;10.65;6.07;;;;;;;18.96;64.11;100419.38;5085529;28;20475;-70
2022/08/21 02:06:50;;;;;;;11.63;6.43;;;;;;;18.97;63.80;100418.38;5086901;28;20048;-70
2022/08/21 02:09:18;;;;;;;13.13;6.57;;;;;;;18.96;63.52;100419.38;5083338;28;20055;-70
2022/08/21 02:11:45;;;;;;;10.40;6.18;;;;;;;18.85;63.12;100401.47;5085049;28;20059;-69
2022/08/21 02:14:14;;;;;;;10.13;6.82;;;;;;;18.95;62.82;100420.34;5084176;28;20545;-70
2022/08/21 02:16:57;;;;;;;10.57;6.20;;;;;;;18.88;62.96;100413.78;5080520;28;20164;-70
2022/08/21 02:19:34;;;;;;;13.90;6.43;;;;;;;18.87;62.74;100420.13;5086286;28;20089;-70
2022/08/21 02:22:08;;;;;;;16.50;6.50;;;;;;;18.80;63.11;100410.84;5086988;28;20063;-70
2022/08/21 02:24:35;;;;;;;9.15;5.90;;;;;;;18.80;63.22;100416.22;5077971;28;20535;-68
2022/08/21 02:27:20;;;;;;;9.95;6.28;;;;;;;18.74;63.60;100409.50;5078029;28;20048;-69
2022/08/21 02:29:53;;;;;;;12.02;7.00;;;;;;;18.64;63.62;100405.88;5078802;28;20048;-71
2022/08/21 02:32:21;;;;;;;10.20;6.30;;;;;;;18.66;63.64;100411.13;5067945;28;20139;-70
2022/08/21 02:34:48;;;;;;;9.52;6.18;;;;;;;18.63;63.96;100409.53;5102484;28;20104;-70
2022/08/21 02:37:15;;;;;;;7.10;5.57;;;;;;;18.52;64.11;100399.63;5106433;28;20062;-71
2022/08/21 02:39:42;;;;;;;10.25;6.68;;;;;;;18.58;64.23;100407.22;5114761;27;20071;-69
2022/08/21 02:42:08;;;;;;;11.82;6.28;;;;;;;18.49;64.65;100394.50;5107628;28;20105;-71
2022/08/21 02:44:35;;;;;;;9.85;6.00;;;;;;;18.45;65.08;100382.31;5102758;28;20082;-71
2022/08/21 02:47:01;;;;;;;10.15;6.72;;;;;;;18.56;65.18;100403.78;5104857;28;20113;-70
2022/08/21 02:49:28;;;;;;;14.05;7.13;;;;;;;18.56;65.25;100405.63;5089061;28;20480;-70
2022/08/21 02:51:55;;;;;;;8.43;6.38;;;;;;;18.55;65.64;100410.13;5106807;27;20491;-69
2022/08/21 02:54:21;;;;;;;9.43;6.85;;;;;;;18.53;66.00;100412.06;5105088;28;20044;-69
2022/08/21 02:56:48;;;;;;;12.43;7.18;;;;;;;18.54;65.74;100402.19;5101726;27;20090;-71
2022/08/21 02:59:14;;;;;;;12.23;7.00;;;;;;;18.54;65.73;100405.72;5103699;28;20128;-70
2022/08/21 03:01:41;;;;;;;13.93;7.70;;;;;;;18.46;66.08;100404.63;5094729;28;20439;-72
2022/08/21 03:04:08;;;;;;;10.35;6.72;;;;;;;18.50;66.15;100406.94;5103646;28;20750;-70
2022/08/21 03:06:34;;;;;;;10.57;7.13;;;;;;;18.50;65.47;100406.94;5103436;28;20050;-72
2022/08/21 03:09:01;;;;;;;12.43;6.95;;;;;;;18.40;65.98;100389.03;5104286;28;20571;-69
2022/08/21 03:11:28;;;;;;;9.98;6.35;;;;;;;18.44;66.03;100404.75;5099308;27;20059;-70
2022/08/21 03:13:54;;;;;;;12.27;6.70;;;;;;;18.37;66.13;100400.84;5104083;28;20603;-72
2022/08/21 03:16:21;;;;;;;10.07;7.03;;;;;;;18.33;66.23;100395.84;5083243;28;20063;-70
2022/08/21 03:18:48;;;;;;;12.65;6.70;;;;;;;18.30;65.89;100393.41;5101219;28;20051;-70
2022/08/21 03:21:14;;;;;;;13.05;6.85;;;;;;;18.21;66.37;100387.81;5102992;28;20051;-71
2022/08/21 03:23:41;;;;;;;11.57;7.28;;;;;;;18.21;66.78;100398.53;5106577;27;20087;-69
2022/08/21 03:26:10;;;;;;;8.75;6.50;;;;;;;18.15;66.85;100400.81;5104286;27;20052;-71
2022/08/21 03:28:37;;;;;;;14.05;7.15;;;;;;;18.10;67.14;100395.00;5105248;28;20043;-68
2022/08/21 03:31:04;;;;;;;11.57;6.57;;;;;;;17.98;66.98;100383.38;5105739;28;20388;-73
2022/08/21 03:33:31;;;;;;;9.02;6.40;;;;;;;18.18;67.25;100411.31;5106411;28;20417;-70
2022/08/21 03:36:10;;;;;;;11.32;6.72;;;;;;;18.22;66.35;100404.75;5107076;27;20043;-71
2022/08/21 03:38:38;;;;;;;8.50;6.47;;;;;;;18.18;67.14;100406.81;5106607;28;20092;-71
2022/08/21 03:41:05;;;;;;;11.45;6.85;;;;;;;18.14;67.45;100410.69;5109223;28;20454;-70
2022/08/21 03:43:33;;;;;;;12.65;7.10;;;;;;;18.04;67.89;100406.19;5106557;27;20047;-70
2022/08/21 03:46:03;;;;;;;10.25;7.90;;;;;;;18.01;68.23;100414.44;5106545;28;20093;-70
2022/08/21 03:48:30;;;;;;;10.43;6.88;;;;;;;17.99;68.35;100416.38;5106328;28;20053;-72
2022/08/21 03:50:57;;;;;;;13.48;7.20;;;;;;;17.94;68.18;100410.56;5107384;28;20530;-72
2022/08/21 03:53:26;;;;;;;9.25;7.07;;;;;;;17.94;68.19;100410.56;5106405;28;20124;-70
2022/08/21 03:55:53;;;;;;;10.50;6.93;;;;;;;17.94;68.31;100416.78;5107091;28;20082;-72
2022/08/21 03:58:23;;;;;;;11.20;6.97;;;;;;;17.94;68.43;100422.13;5111674;28;20128;-71
2022/08/21 04:00:53;;;;;;;11.60;7.32;;;;;;;17.92;68.36;100428.56;5105024;28;20078;-68
2022/08/21 04:03:21;;;;;;;9.70;6.60;;;;;;;17.94;69.00;100432.00;5088582;28;20105;-68
2022/08/21 04:05:47;;;;;;;9.77;7.10;;;;;;;18.04;68.84;100430.28;5106548;28;20047;-69
2022/08/21 04:08:18;;;;;;;8.85;6.45;;;;;;;18.10;68.26;100432.50;5104760;28;20097;-69
2022/08/21 04:10:46;;;;;;;;;;;;;;;18.11;68.18;100435.03;5106316;28;20498;-70
2022/08/21 04:13:12;;;;;;;10.75;7.20;;;;;;;18.16;67.87;100435.56;5105727;28;19963;-68
2022/08/21 04:15:39;;;;;;;20.08;7.50;;;;;;;18.09;67.87;100418.25;5102958;28;20070;-70
2022/08/21 04:18:06;;;;;;;11.07;6.53;;;;;;;18.24;67.87;100448.38;5104478;28;20040;-71
2022/08/21 04:20:34;;;;;;;9.55;6.78;;;;;;;18.25;67.86;100441.19;5106734;28;20039;-69
2022/08/21 04:23:02;;;;;;;14.38;6.85;;;;;;;18.20;68.31;100441.53;5103647;28;20043;-72
2022/08/21 04:25:29;;;;;;;11.70;6.65;;;;;;;18.12;68.56;100430.53;5104964;28;20116;-70
2022/08/21 04:27:55;;;;;;;12.10;7.45;;;;;;;18.20;68.08;100446.91;5105460;28;20123;-69
2022/08/21 04:30:22;;;;;;;13.27;6.85;;;;;;;18.11;68.37;100447.59;5103577;28;20443;-72
2022/08/21 04:32:56;;;;;;;9.10;6.30;;;;;;;18.10;68.74;100454.78;5106048;28;20047;-70
2022/08/21 04:35:26;;;;;;;8.88;6.47;;;;;;;17.91;68.49;100443.78;5106586;28;20138;-69
2022/08/21 04:37:53;;;;;;;13.00;6.88;;;;;;;17.82;69.25;100444.47;5104041;28;20117;-70
2022/08/21 04:40:22;;;;;;;10.07;7.25;;;;;;;17.85;69.10;100457.63;5106403;28;20177;-70
2022/08/21 04:42:51;;;;;;;11.77;7.00;;;;;;;17.79;69.69;100458.94;5109204;28;20035;-70
2022/08/21 04:45:21;;;;;;;8.75;6.90;;;;;;;17.73;69.32;100461.25;5104091;28;20042;-71
2022/08/21 04:47:53;;;;;;;10.55;7.38;;;;;;;17.72;69.32;100454.19;5105787;28;20044;-72
2022/08/21 04:50:24;;;;;;;10.27;7.25;;;;;;;17.76;69.48;100461.88;5112060;28;20130;-70
2022/08/21 04:52:51;;;;;;;11.82;6.97;;;;;;;17.71;69.00;100442.63;5090740;27;20130;-69
2022/08/21 04:55:18;;;;;;;11.18;7.57;;;;;;;17.94;68.32;100462.31;5107328;28;20064;-69
2022/08/21 04:57:45;;;;;;;13.75;7.32;;;;;;;18.04;68.28;100467.81;5108849;27;20055;-70
2022/08/21 05:00:18;;;;;;;10.95;6.82;;;;;;;18.12;68.51;100466.22;5106720;27;20363;-72
2022/08/21 05:02:47;;;;;;;11.45;6.82;;;;;;;18.05;67.94;100474.88;5109457;28;20055;-71
2022/08/21 05:05:14;;;;;;;12.55;7.68;;;;;;;18.06;68.76;100468.56;5105721;28;20070;-71
2022/08/21 05:07:43;;;;;;;9.98;6.75;;;;;;;17.98;69.48;100479.84;5107637;28;20047;-71
2022/08/21 05:10:10;;;;;;;12.25;7.65;;;;;;;17.85;70.28;100479.94;5102841;28;20043;-72
2022/08/21 05:12:41;;;;;;;8.20;6.20;;;;;;;17.73;70.65;100472.81;5108324;27;20066;-69
2022/08/21 05:15:11;;;;;;;9.70;7.28;;;;;;;17.74;71.00;100485.25;5107460;28;20135;-70
2022/08/21 05:17:40;;;;;;;14.27;7.50;;;;;;;17.75;71.40;100478.94;5110274;27;20170;-70
2022/08/21 05:20:12;;;;;;;10.80;7.25;;;;;;;17.81;71.03;100489.16;5103514;28;20043;-71
2022/08/21 05:22:38;;;;;;;10.60;7.03;;;;;;;17.67;71.03;100473.28;5110301;27;20043;-72
2022/08/21 05:25:07;;;;;;;15.88;7.75;;;;;;;17.76;70.73;100487.81;5108338;28;20082;-71
2022/08/21 05:27:38;;;;;;;10.57;7.13;;;;;;;17.75;71.34;100489.63;5113888;27;20055;-71
2022/08/21 05:30:09;;;;;;;10.32;7.60;;;;;;;17.61;71.59;100464.84;5105328;27;20640;-71
2022/08/21 05:32:36;;;;;;;10.60;7.68;;;;;;;17.77;71.51;100485.03;5109947;28;20454;-72
2022/08/21 05:35:07;;;;;;;10.52;6.75;;;;;;;17.78;71.42;100483.19;5109705;28;20052;-74
2022/08/21 05:37:34;;;;;;;14.77;8.50;;;;;;;17.86;71.10;100494.19;5109102;28;20116;-71
2022/08/21 05:40:02;;;;;;;11.35;7.68;;;;;;;17.90;71.38;100492.13;5108000;28;20095;-73
2022/08/21 05:42:47;;;;;;;12.25;7.80;;;;;;;18.04;70.33;100489.25;5100816;28;20568;-72
2022/08/21 05:45:24;;;;;;;14.00;7.53;;;;;;;18.15;70.04;100500.84;5101799;28;20572;-72
2022/08/21 05:48:12;;;;;;;12.35;7.70;;;;;;;18.27;68.66;100496.34;5098504;28;20035;-72
2022/08/21 05:50:38;;;;;;;12.88;8.40;;;;;;;18.37;67.69;100494.69;5102725;28;20068;-71
2022/08/21 05:53:05;;;;;;;10.13;8.15;;;;;;;18.44;67.28;100495.91;5108719;27;20450;-72
2022/08/21 05:55:33;;;;;;;11.27;7.63;;;;;;;18.51;66.93;100497.16;5107042;27;20051;-70
2022/08/21 05:58:00;;;;;;;10.38;7.20;;;;;;;18.60;67.26;100500.09;5107819;27;20454;-73
2022/08/21 06:00:27;;;;;;;11.65;8.00;;;;;;;18.67;66.28;100501.34;5108280;28;20048;-71
2022/08/21 06:02:53;;;;;;;10.90;7.00;;;;;;;18.75;65.69;100501.56;5108225;28;20044;-72
2022/08/21 06:05:21;;;;;;;10.73;7.22;;;;;;;18.82;66.07;100500.13;5103180;28;20039;-72
2022/08/21 06:08:03;;;;;;;10.23;7.43;;;;;;;18.93;64.96;100510.84;5108184;28;20047;-71
2022/08/21 06:10:30;;;;;;;12.93;7.90;;;;;;;18.97;64.88;100503.41;5108459;28;20047;-74
2022/08/21 06:12:57;;;;;;;12.82;7.50;;;;;;;18.99;64.63;100507.69;5106855;27;20127;-69
2022/08/21 06:15:24;;;;;;;12.57;8.00;;;;;;;18.98;65.15;100511.34;5103488;27;20052;-72
2022/08/21 06:17:53;;;;;;;14.05;8.10;;;;;;;19.00;64.82;100495.97;5112117;27;20180;-71
2022/08/21 06:20:19;;;;;;;10.00;7.47;;;;;;;19.11;64.81;100492.41;5102579;28;20052;-71
2022/08/21 06:22:46;;;;;;;11.77;8.98;;;;;;;19.27;64.45;100511.66;5101477;28;20426;-71
2022/08/21 06:25:13;;;;;;;16.13;8.52;;;;;;;19.37;64.59;100509.06;5108940;27;20036;-72
2022/08/21 06:27:39;;;;;;;14.82;8.13;;;;;;;19.54;63.31;100508.59;5106001;27;20139;-72
2022/08/21 06:30:07;;;;;;;10.40;7.68;;;;;;;19.73;63.09;100503.41;5106353;28;20039;-73
2022/08/21 06:32:34;;;;;;;10.95;8.13;;;;;;;20.01;61.55;100510.00;5108286;28;20078;-71
2022/08/21 06:35:01;;;;;;;11.55;8.57;;;;;;;20.17;60.70;100498.78;5108458;28;20557;-74
2022/08/21 06:37:27;;;;;;;13.18;8.50;;;;;;;20.27;61.68;100499.72;5100976;28;20047;-72
2022/08/21 06:39:54;;;;;;;13.70;9.07;;;;;;;20.51;60.88;100505.69;5106740;28;20043;-71
2022/08/21 06:42:21;;;;;;;10.82;8.38;;;;;;;20.82;60.22;100497.63;5106749;28;20040;-69
2022/08/21 06:44:53;;;;;;;14.38;8.77;;;;;;;21.07;58.69;100493.66;5104273;28;20119;-72
2022/08/21 06:47:20;;;;;;;11.18;7.78;;;;;;;21.39;58.28;100499.72;5104737;28;20380;-70
2022/08/21 06:49:46;;;;;;;12.50;8.50;;;;;;;21.67;57.14;100498.06;5104337;28;20075;-71
2022/08/21 06:52:13;;;;;;;19.13;9.13;;;;;;;21.90;56.14;100490.53;5111091;27;20071;-71
2022/08/21 06:54:40;;;;;;;13.07;7.82;;;;;;;22.28;55.32;100495.09;5106841;28;20574;-70
2022/08/21 06:57:07;;;;;;;11.35;7.63;;;;;;;22.61;54.17;100493.72;5105106;27;20511;-74
2022/08/21 06:59:34;;;;;;;11.48;7.75;;;;;;;22.88;52.55;100483.00;5104655;27;20043;-71
2022/08/21 07:02:00;;;;;;;12.90;8.35;;;;;;;23.07;51.83;100492.84;5100299;28;20059;-70
2022/08/21 07:04:27;;;;;;;10.02;8.13;;;;;;;23.17;52.75;100499.06;5103070;27;20050;-71
2022/08/21 07:06:54;;;;;;;13.15;8.23;;;;;;;23.36;50.83;100487.28;5105653;28;20499;-71
2022/08/21 07:09:20;;;;;;;11.45;8.20;;;;;;;23.59;50.40;100491.31;5102320;28;20048;-72
2022/08/21 07:11:53;;;;;;;12.38;7.90;;;;;;;23.82;50.18;100488.97;5108740;27;20052;-72
2022/08/21 07:14:19;;;;;;;13.52;8.40;;;;;;;24.00;49.46;100491.69;5103829;27;20092;-72
2022/08/21 07:16:47;;;;;;;9.85;8.02;;;;;;;23.98;49.68;100491.81;5102604;27;20056;-72
2022/08/21 07:19:14;;;;;;;9.63;8.10;;;;;;;23.88;50.03;100474.84;5101216;28;20044;-72
2022/08/21 07:21:40;;;;;;;12.30;7.43;;;;;;;24.01;49.51;100487.97;5106825;28;20097;-73
2022/08/21 07:24:07;;;;;;;13.80;8.20;;;;;;;24.17;49.60;100487.25;5107835;28;20067;-74
2022/08/21 07:26:34;;;;;;;12.20;8.15;;;;;;;23.92;50.71;100484.34;5109271;28;20040;-70
2022/08/21 07:29:00;;;;;;;9.90;7.60;;;;;;;23.77;51.04;100469.66;5107743;28;20081;-71
2022/08/21 07:31:27;;;;;;;11.77;8.48;;;;;;;24.14;50.16;100491.13;5108250;28;20647;-70
2022/08/21 07:33:54;;;;;;;10.27;7.88;;;;;;;24.32;49.06;100483.84;5095944;28;20560;-71
2022/08/21 07:36:21;;;;;;;10.77;8.55;;;;;;;24.39;48.37;100489.50;5080381;28;20508;-72
2022/08/21 07:38:48;;;;;;;11.48;8.30;;;;;;;24.39;48.57;100481.38;5072345;28;20203;-71
2022/08/21 07:41:25;;;;;;;10.82;8.15;;;;;;;24.47;49.08;100473.28;5090271;28;20643;-70
2022/08/21 07:43:52;;;;;;;10.73;7.50;;;;;;;24.74;48.13;100478.53;5090424;28;20048;-70
2022/08/21 07:46:19;;;;;;;10.88;8.38;;;;;;;24.84;47.44;100459.47;5086678;28;20095;-69
2022/08/21 07:48:46;;;;;;;9.20;7.47;;;;;;;25.10;46.75;100476.53;5088565;28;20048;-70
2022/08/21 07:51:15;;;;;;;12.00;7.80;;;;;;;25.31;46.59;100470.69;5094875;28;20388;-70
2022/08/21 07:53:48;;;;;;;11.45;7.90;;;;;;;25.37;46.45;100466.44;5089488;28;20101;-70
2022/08/21 07:56:14;;;;;;;11.60;8.60;;;;;;;25.17;47.86;100474.03;5090815;28;20051;-69
2022/08/21 07:58:41;;;;;;;11.02;7.97;;;;;;;25.02;48.69;100472.94;5081775;28;20056;-71
2022/08/21 08:01:08;;;;;;;11.05;7.57;;;;;;;24.89;48.52;100470.63;5090870;28;20044;-70
2022/08/21 08:03:36;;;;;;;12.75;8.30;;;;;;;25.01;47.61;100463.97;5084943;28;20070;-69
2022/08/21 08:06:04;;;;;;;9.68;8.15;;;;;;;25.23;46.80;100467.94;5090171;28;20098;-72
2022/08/21 08:08:31;;;;;;;12.15;8.13;;;;;;;25.42;46.96;100453.25;5088777;28;20155;-71
2022/08/21 08:10:59;;;;;;;12.20;7.85;;;;;;;25.70;46.35;100453.81;5089708;28;20048;-71
2022/08/21 08:13:27;;;;;;;12.40;8.77;;;;;;;25.77;45.88;100458.41;5088282;28;20056;-70
2022/08/21 08:15:54;;;;;;;11.73;8.23;;;;;;;25.24;47.01;100463.34;5088631;28;20048;-72
2022/08/21 08:18:21;;;;;;;11.93;8.02;;;;;;;25.07;47.60;100465.16;5095547;28;20044;-71
2022/08/21 08:20:47;;;;;;;11.23;8.27;;;;;;;25.11;48.07;100463.81;5083410;28;20094;-72
2022/08/21 08:23:15;;;;;;;10.32;8.38;;;;;;;24.80;48.76;100466.19;5095696;28;20040;-71
2022/08/21 08:25:41;;;;;;;9.85;7.63;;;;;;;24.29;50.53;100462.50;5086054;28;20067;-71
2022/08/21 08:28:08;;;;;;;10.25;7.47;;;;;;;24.54;49.67;100465.41;5093951;28;20043;-72
2022/08/21 08:30:43;;;;;;;10.55;8.05;;;;;;;25.01;48.11;100461.25;5096349;28;20571;-70
2022/08/21 08:33:10;;;;;;;12.57;8.38;;;;;;;24.93;47.85;100460.31;5102300;28;20114;-71
2022/08/21 08:35:37;;;;;;;12.18;8.45;;;;;;;24.48;49.76;100456.03;5110384;28;20415;-71
2022/08/21 08:38:05;;;;;;;10.27;7.60;;;;;;;24.31;50.67;100451.53;5110268;27;20493;-74
2022/08/21 08:40:42;;;;;;;10.57;7.15;;;;;;;24.85;49.47;100447.63;5110248;28;20090;-74
2022/08/21 08:43:09;;;;;;;10.07;7.40;;;;;;;25.40;47.38;100441.72;5110283;28;20055;-74
2022/08/21 08:45:45;;;;;;;10.85;7.70;;;;;;;25.60;46.65;100429.56;5109920;28;20055;-71
2022/08/21 08:48:14;;;;;;;9.77;6.82;;;;;;;25.80;46.37;100432.81;5102942;28;20039;-73
2022/08/21 08:50:53;;;;;;;13.30;7.55;;;;;;;25.97;45.10;100418.25;5110559;27;20122;-73
2022/08/21 08:53:28;;;;;;;12.15;8.32;;;;;;;25.67;45.79;100433.31;5106410;27;20052;-71
2022/08/21 08:55:57;;;;;;;12.00;7.20;;;;;;;25.82;46.38;100428.91;5108676;27;20058;-75
2022/08/21 08:58:30;;;;;;;8.85;7.07;;;;;;;26.25;44.18;100428.72;5108220;27;20067;-74
2022/08/21 09:00:58;;;;;;;12.43;7.80;;;;;;;25.94;44.94;100429.44;5110100;27;20142;-75
2022/08/21 09:03:27;;;;;;;11.20;6.88;;;;;;;25.39;44.76;100402.06;5096990;27;20123;-74
2022/08/21 09:06:06;;;;;;;9.65;6.97;;;;;;;25.12;45.90;100424.88;5110535;28;20048;-74
2022/08/21 09:08:48;;;;;;;11.60;6.40;;;;;;;24.64;45.35;100404.69;5106340;28;20047;-73
2022/08/21 09:11:28;;;;;;;10.75;6.00;;;;;;;24.29;45.68;100408.38;5109422;27;20051;-74
2022/08/21 09:14:21;;;;;;;10.93;5.35;;;;;;;23.98;45.55;100407.97;5109663;28;20415;-72
2022/08/21 09:17:19;;;;;;;11.25;4.47;;;;;;;24.14;42.92;100413.50;5110596;27;20055;-73
2022/08/21 09:20:36;;;;;;;12.93;4.18;;;;;;;24.05;41.72;100414.47;5109163;27;20559;-75
2022/08/21 09:23:31;;;;;;;7.63;3.20;;;;;;;24.11;41.96;100415.66;5022669;28;20049;-72
2022/08/21 09:26:11;;;;;;;16.00;3.92;;;;;;;24.16;42.80;100417.91;5105034;27;20043;-75
2022/08/21 09:28:41;;;;;;;9.18;4.40;;;;;;;23.99;44.47;100376.38;5110884;28;20067;-75
2022/08/21 09:31:15;;;;;;;10.43;4.57;;;;;;;24.41;44.29;100400.84;5109124;27;20047;-73
2022/08/21 09:33:42;;;;;;;14.93;4.10;;;;;;;24.66;43.86;100405.38;5109635;28;20063;-73
2022/08/21 09:36:09;;;;;;;17.20;5.47;;;;;;;24.94;43.15;100402.47;5109707;28;20186;-74
2022/08/21 09:38:38;;;;;;;11.18;4.45;;;;;;;25.19;41.68;100406.94;5109055;28;20396;-76
2022/08/21 09:41:09;;;;;;;8.55;3.75;;;;;;;25.14;41.05;100385.78;5112621;27;20048;-74
2022/08/21 09:43:38;;;;;;;7.70;3.67;;;;;;;25.11;41.31;100382.53;5112886;27;20048;-70
2022/08/21 09:46:11;;;;;;;7.05;4.13;;;;;;;25.20;40.73;100408.63;5108113;28;20061;-75
2022/08/21 09:48:47;;;;;;;16.23;5.38;;;;;;;25.14;40.73;100393.91;5109804;27;20063;-74
2022/08/21 09:51:17;;;;;;;7.57;3.40;;;;;;;25.31;40.65;100399.34;5104238;27;20071;-72
2022/08/21 09:53:49;;;;;;;8.65;3.88;;;;;;;25.62;41.01;100405.88;5108529;27;20048;-72
2022/08/21 09:59:31;;;;;;;8.77;4.35;;;;;;;25.88;40.14;100396.69;5105509;28;20051;-72
2022/08/21 10:02:17;;;;;;;8.63;4.45;;;;;;;25.84;39.06;100391.59;5109665;28;20062;-74
2022/08/21 10:04:54;;;;;;;9.65;4.50;;;;;;;25.70;39.32;100391.44;5110382;27;20140;-74
2022/08/21 10:07:23;;;;;;;8.70;4.40;;;;;;;25.71;40.10;100393.13;5103677;28;20051;-74
2022/08/21 10:10:07;;;;;;;7.82;4.40;;;;;;;25.52;40.25;100389.69;5101456;28;20099;-72
2022/08/21 10:12:49;;;;;;;11.35;4.78;;;;;;;25.63;40.07;100388.56;5122052;27;20047;-71
2022/08/21 10:15:54;;;;;;;8.80;4.28;;;;;;;25.77;39.83;100370.78;5113227;28;20181;-74
2022/08/21 10:18:42;;;;;;;5.32;3.95;;;;;;;26.00;39.99;100377.19;5104327;28;21332;-73
2022/08/21 10:21:26;;;;;;;7.38;4.28;;;;;;;25.91;38.86;100364.66;5104157;27;20043;-71
2022/08/21 10:24:48;;;;;;;8.70;4.18;;;;;;;25.51;40.02;100360.88;5108776;28;20082;-71
2022/08/21 10:27:33;;;;;;;9.32;4.85;;;;;;;25.43;40.34;100373.59;4982721;28;20124;-72
2022/08/21 10:30:08;;;;;;;7.53;4.20;;;;;;;25.51;40.40;100366.31;5090432;28;20104;-71
2022/08/21 10:32:47;;;;;;;7.55;4.43;;;;;;;25.79;38.74;100366.88;5109466;27;20036;-71
2022/08/21 10:35:20;;;;;;;6.07;4.13;;;;;;;25.94;38.45;100350.75;5107688;28;20047;-72
2022/08/21 10:38:14;;;;;;;7.20;3.92;;;;;;;26.12;38.26;100342.41;5107789;28;20109;-71
2022/08/21 10:41:28;;;;;;;8.95;3.75;;;;;;;26.28;38.38;100363.22;5106532;27;20039;-72
2022/08/21 10:44:10;;;;;;;8.27;3.60;;;;;;;26.36;38.73;100360.50;5108444;28;20229;-73
2022/08/21 10:46:56;;;;;;;7.53;4.10;;;;;;;26.48;37.95;100357.22;5105067;28;20051;-69
2022/08/21 10:49:44;;;;;;;9.48;3.33;;;;;;;26.32;37.67;100341.00;5102145;28;20074;-74
2022/08/21 10:52:23;;;;;;;10.10;3.60;;;;;;;26.44;36.43;100336.91;5102884;28;20044;-70
2022/08/21 10:55:03;;;;;;;8.30;3.85;;;;;;;26.75;35.99;100350.50;5103666;27;20467;-70
2022/08/21 10:57:48;;;;;;;7.90;3.80;;;;;;;26.71;36.77;100346.44;5112966;27;20059;-72
2022/08/21 11:00:20;;;;;;;8.63;3.78;;;;;;;26.57;37.90;100346.34;5104817;28;20051;-73
2022/08/21 11:02:58;;;;;;;6.20;3.78;;;;;;;26.65;36.69;100343.59;5105436;28;20422;-73
2022/08/21 11:05:33;;;;;;;5.95;3.00;;;;;;;26.74;36.40;100335.25;5096542;28;20403;-72
2022/08/21 11:08:11;;;;;;;8.48;3.50;;;;;;;26.95;35.92;100344.66;5112734;27;20138;-73
2022/08/21 11:10:57;;;;;;;7.57;3.20;;;;;;;27.18;35.68;100340.94;5110346;28;20512;-71
2022/08/21 11:13:37;;;;;;;5.43;3.63;;;;;;;26.81;36.29;100311.75;5110177;28;20104;-73
2022/08/21 11:16:07;;;;;;;8.63;4.25;;;;;;;26.50;37.48;100322.59;5110793;28;20044;-69
2022/08/21 11:18:39;;;;;;;6.97;4.38;;;;;;;26.40;37.82;100313.00;5107588;27;20479;-72
2022/08/21 11:21:23;;;;;;;9.90;4.15;;;;;;;26.56;37.37;100334.63;5110327;27;20571;-70
2022/08/21 11:24:03;;;;;;;6.30;3.65;;;;;;;26.54;36.98;100312.25;5105583;28;20083;-72
2022/08/21 11:26:49;;;;;;;8.63;3.80;;;;;;;26.88;36.38;100337.19;5091400;27;20075;-71
2022/08/21 11:29:34;;;;;;;5.55;3.28;;;;;;;27.14;35.11;100333.31;5101093;28;20063;-71
2022/08/21 11:32:46;;;;;;;5.25;2.90;;;;;;;26.92;34.61;100320.53;5107204;27;20046;-71
2022/08/21 11:35:30;;;;;;;5.75;3.25;;;;;;;26.69;35.28;100302.31;5090810;28;20442;-73
2022/08/21 11:37:57;;;;;;;8.75;3.50;;;;;;;26.48;35.80;100323.78;5104978;28;20055;-73
2022/08/21 11:40:44;;;;;;;5.82;3.35;;;;;;;26.36;36.54;100309.78;5107676;28;20108;-72